Time;durP1;ratioP1;P1;durP2;ratioP2;P2;SDS_P1;SDS_P2;PMS_P1;PMS_P2;Temp;Humidity;BMP_temperature;BMP_pressure;BME280_temperature;BME280_humidity;BME280_pressure;Samples;Min_cycle;Max_cycle;Signal;HPM_P1;HPM_P2
2024/01/16 00:01:37;;;;;;;6.03;2.13;;;;;;;2.81;81.27;100445.84;7392586;19;20018;-60
2024/01/16 00:04:08;;;;;;;9.35;2.33;;;;;;;2.79;80.84;100448.56;7392736;19;20026;-61
2024/01/16 00:06:42;;;;;;;6.32;1.90;;;;;;;2.75;80.80;100439.16;7389171;19;20090;-57
2024/01/16 00:09:17;;;;;;;5.40;1.85;;;;;;;2.71;81.20;100432.38;7391176;19;20100;-57
2024/01/16 00:11:47;;;;;;;4.40;1.75;;;;;;;2.79;81.21;100447.72;7386536;19;20043;-56
2024/01/16 00:14:18;;;;;;;5.10;1.67;;;;;;;2.64;81.43;100444.88;7388918;19;20014;-59
2024/01/16 00:16:49;;;;;;;5.60;1.73;;;;;;;2.70;81.38;100459.41;7389476;19;20478;-59
2024/01/16 00:19:19;;;;;;;4.40;1.40;;;;;;;2.69;81.79;100455.97;7391951;19;20478;-58
2024/01/16 00:22:00;;;;;;;4.20;1.00;;;;;;;2.75;81.28;100456.59;7392071;19;20010;-59
2024/01/16 00:24:34;;;;;;;3.53;0.70;;;;;;;2.70;81.63;100464.66;7395272;19;20014;-59
2024/01/16 00:27:05;;;;;;;4.20;1.15;;;;;;;2.69;81.94;100465.56;7395914;19;20025;-60
2024/01/16 00:29:39;;;;;;;5.82;1.60;;;;;;;2.65;81.95;100472.72;7398377;19;20025;-60
2024/01/16 00:32:10;;;;;;;6.90;2.30;;;;;;;2.67;81.84;100480.47;7396722;19;20038;-60
2024/01/16 00:34:41;;;;;;;6.45;2.20;;;;;;;2.71;81.56;100476.81;7399330;19;20082;-59
2024/01/16 00:37:12;;;;;;;3.33;1.30;;;;;;;2.73;81.22;100480.19;7396371;19;20018;-57
2024/01/16 00:39:43;;;;;;;2.30;0.70;;;;;;;2.73;81.44;100488.03;7398702;19;20039;-58
2024/01/16 00:42:13;;;;;;;0.90;0.30;;;;;;;2.56;81.20;100485.34;7399782;19;20021;-58
2024/01/16 00:44:44;;;;;;;1.60;0.40;;;;;;;2.52;81.24;100487.25;7398523;19;20043;-58
2024/01/16 00:47:14;;;;;;;2.83;0.50;;;;;;;2.39;81.71;100484.31;7395683;19;20047;-58
2024/01/16 00:49:45;;;;;;;3.70;0.40;;;;;;;2.38;82.22;100484.41;7398206;19;20011;-58
2024/01/16 00:52:15;;;;;;;1.25;0.40;;;;;;;2.33;82.40;100478.53;7399355;19;20050;-56
2024/01/16 00:54:46;;;;;;;3.25;0.50;;;;;;;2.34;82.55;100477.63;7399466;19;20486;-59
2024/01/16 00:57:35;;;;;;;2.00;0.40;;;;;;;2.34;82.28;100469.78;7398265;19;20030;-59
2024/01/16 01:00:06;;;;;;;1.70;0.30;;;;;;;2.36;82.71;100478.38;7403008;19;20035;-60
2024/01/16 01:02:38;;;;;;;1.50;0.47;;;;;;;2.35;82.49;100484.53;7405106;19;20044;-60
2024/01/16 01:05:09;;;;;;;1.40;0.60;;;;;;;2.37;82.41;100486.16;7403494;19;20018;-62
2024/01/16 01:07:40;;;;;;;3.38;0.90;;;;;;;2.34;82.60;100488.06;7400612;19;20022;-60
2024/01/16 01:10:11;;;;;;;4.53;1.60;;;;;;;2.34;83.12;100496.75;7396801;19;20018;-60
2024/01/16 01:12:41;;;;;;;4.93;1.77;;;;;;;2.49;82.81;100492.63;7396596;19;20024;-62
2024/01/16 01:15:13;;;;;;;5.22;1.55;;;;;;;2.47;82.43;100510.13;7396794;19;20014;-62
2024/01/16 01:17:42;;;;;;;3.10;1.15;;;;;;;2.54;81.92;100506.31;7397697;19;20022;-61
2024/01/16 01:20:13;;;;;;;5.10;1.48;;;;;;;2.35;81.16;100495.81;7396556;19;20420;-63
2024/01/16 01:22:44;;;;;;;3.30;1.27;;;;;;;2.41;81.99;100510.41;7397669;19;20027;-63
2024/01/16 01:25:14;;;;;;;5.30;2.10;;;;;;;2.40;81.96;100504.34;7395026;19;20505;-64
2024/01/16 01:27:44;;;;;;;6.10;2.38;;;;;;;2.45;81.22;100519.81;7397007;19;20415;-64
2024/01/16 01:30:14;;;;;;;7.25;2.03;;;;;;;2.43;81.45;100529.47;7395549;19;20022;-60
2024/01/16 01:32:43;;;;;;;6.93;1.60;;;;;;;2.51;81.34;100529.97;7395717;19;20373;-62
2024/01/16 01:35:17;;;;;;;6.50;2.08;;;;;;;2.51;81.03;100537.81;7393215;19;20494;-63
2024/01/16 01:37:45;;;;;;;7.88;2.33;;;;;;;2.61;80.65;100533.88;7396330;19;20397;-62
2024/01/16 01:40:16;;;;;;;7.68;1.63;;;;;;;2.68;80.00;100537.94;7397404;19;20022;-62
2024/01/16 01:42:45;;;;;;;4.55;0.95;;;;;;;2.64;80.17;100535.53;7397082;19;20010;-62
2024/01/16 01:45:15;;;;;;;3.35;0.60;;;;;;;2.61;80.08;100551.34;7396007;19;20406;-60
2024/01/16 01:47:45;;;;;;;4.22;0.80;;;;;;;2.61;79.85;100541.72;7396705;19;20018;-62
2024/01/16 01:50:17;;;;;;;2.88;0.55;;;;;;;2.50;80.11;100537.88;7396478;19;20082;-62
2024/01/16 01:52:47;;;;;;;1.70;0.43;;;;;;;2.45;79.64;100548.53;7395028;19;20418;-61
2024/01/16 01:55:17;;;;;;;4.07;0.50;;;;;;;2.40;80.14;100560.94;7395493;19;20030;-61
2024/01/16 01:57:46;;;;;;;2.17;0.40;;;;;;;2.39;79.82;100575.78;7396455;19;20018;-59
2024/01/16 02:00:18;;;;;;;2.70;0.40;;;;;;;2.40;79.98;100577.50;7394753;19;20022;-61
2024/01/16 02:02:49;;;;;;;6.50;0.95;;;;;;;2.31;80.81;100590.09;7395829;19;20019;-60
2024/01/16 02:05:19;;;;;;;7.13;1.65;;;;;;;2.24;81.88;100583.41;7394904;19;20038;-61
2024/01/16 02:07:49;;;;;;;6.55;1.88;;;;;;;2.24;82.47;100591.25;7396319;19;20019;-61
2024/01/16 02:10:20;;;;;;;7.00;2.30;;;;;;;2.15;83.22;100582.06;7395490;19;20018;-62
2024/01/16 02:12:50;;;;;;;5.53;1.67;;;;;;;2.19;83.15;100581.84;7394952;19;20034;-61
2024/01/16 02:15:23;;;;;;;8.02;1.95;;;;;;;2.27;82.50;100585.91;7394961;19;20022;-61
2024/01/16 02:17:53;;;;;;;4.10;1.25;;;;;;;2.16;82.49;100586.34;7393970;19;20014;-62
2024/01/16 02:20:24;;;;;;;3.75;0.70;;;;;;;2.07;82.24;100577.16;7395545;19;20015;-61
2024/01/16 02:22:57;;;;;;;2.53;0.63;;;;;;;2.25;81.57;100586.00;7394172;19;20039;-62
2024/01/16 02:25:30;;;;;;;3.75;0.40;;;;;;;2.21;81.27;100605.28;7394910;19;20025;-62
2024/01/16 02:28:02;;;;;;;4.32;0.60;;;;;;;2.06;81.67;100600.69;7393599;19;20475;-61
2024/01/16 02:30:42;;;;;;;3.28;0.68;;;;;;;2.06;81.35;100608.53;7395621;19;20115;-62
2024/01/16 02:33:12;;;;;;;3.80;0.57;;;;;;;1.98;81.63;100608.84;7394143;19;20392;-62
2024/01/16 02:35:43;;;;;;;4.38;0.70;;;;;;;1.97;82.20;100614.97;7392438;19;20094;-62
2024/01/16 02:38:14;;;;;;;5.38;1.25;;;;;;;1.94;82.85;100605.50;7394890;19;20026;-62
2024/01/16 02:40:45;;;;;;;8.73;2.60;;;;;;;2.06;83.21;100587.63;7393657;19;20014;-62
2024/01/16 02:43:16;;;;;;;9.45;2.65;;;;;;;2.11;83.04;100586.53;7393211;19;20487;-62
2024/01/16 02:45:46;;;;;;;6.40;2.08;;;;;;;2.10;82.58;100586.59;7393921;19;20023;-62
2024/01/16 02:48:16;;;;;;;6.97;1.73;;;;;;;2.01;83.32;100592.22;7394160;19;20022;-62
2024/01/16 02:50:47;;;;;;;3.10;0.90;;;;;;;1.95;83.15;100598.53;7394877;19;20022;-61
2024/01/16 02:53:17;;;;;;;2.55;1.05;;;;;;;2.00;83.19;100606.19;7392719;19;20014;-62
2024/01/16 02:55:48;;;;;;;4.80;0.90;;;;;;;2.11;82.87;100610.06;7393501;19;20078;-61
2024/01/16 02:58:18;;;;;;;4.88;0.80;;;;;;;2.09;82.59;100611.03;7394304;19;20022;-58
2024/01/16 03:00:49;;;;;;;6.15;0.95;;;;;;;2.01;82.65;100610.50;7395252;19;20018;-54
2024/01/16 03:03:20;;;;;;;3.33;0.70;;;;;;;2.05;82.10;100605.06;7394583;19;20035;-52
2024/01/16 03:05:50;;;;;;;3.70;0.90;;;;;;;2.08;81.44;100610.16;7394027;19;20022;-54
2024/01/16 03:08:21;;;;;;;3.28;0.70;;;;;;;2.08;81.17;100609.34;7394793;19;20014;-56
2024/01/16 03:10:51;;;;;;;6.05;1.33;;;;;;;2.18;80.94;100621.94;7393997;19;20035;-58
2024/01/16 03:13:22;;;;;;;4.32;0.80;;;;;;;2.11;80.63;100617.88;7392789;19;20050;-57
2024/01/16 03:15:55;;;;;;;3.72;1.70;;;;;;;1.93;80.39;100622.09;7392215;19;20030;-57
2024/01/16 03:18:26;;;;;;;6.33;1.10;;;;;;;1.95;80.55;100616.81;7394007;19;20029;-58
2024/01/16 03:20:59;;;;;;;5.72;1.00;;;;;;;2.05;80.48;100619.91;7393610;19;20027;-56
2024/01/16 03:23:33;;;;;;;6.15;1.25;;;;;;;2.13;79.98;100605.59;7393753;19;20010;-54
2024/01/16 03:26:03;;;;;;;7.97;1.00;;;;;;;2.23;79.47;100608.69;7391959;19;20018;-55
2024/01/16 03:28:35;;;;;;;5.32;1.65;;;;;;;2.09;79.26;100604.03;7393696;19;20019;-57
2024/01/16 03:31:06;;;;;;;6.00;2.03;;;;;;;1.97;79.84;100608.91;7391861;19;20444;-56
2024/01/16 03:33:41;;;;;;;11.35;3.38;;;;;;;1.87;80.15;100619.75;7392895;19;20022;-58
2024/01/16 03:36:13;;;;;;;10.63;3.40;;;;;;;1.80;80.14;100615.66;7392096;19;20015;-60
2024/01/16 03:38:44;;;;;;;9.43;3.33;;;;;;;1.79;79.90;100611.34;7392675;19;20022;-60
2024/01/16 03:41:14;;;;;;;8.07;1.80;;;;;;;1.74;80.00;100609.84;7393148;19;20035;-58
2024/01/16 03:43:44;;;;;;;5.32;1.33;;;;;;;1.85;79.42;100611.09;7393163;19;20024;-57
2024/01/16 03:46:15;;;;;;;5.28;1.02;;;;;;;1.66;79.56;100607.53;7391103;19;20022;-58
2024/01/16 03:48:45;;;;;;;4.60;1.35;;;;;;;1.59;79.96;100609.53;7392667;19;20031;-57
2024/01/16 03:51:17;;;;;;;6.15;0.85;;;;;;;1.59;79.56;100603.44;7391669;19;20032;-58
2024/01/16 03:53:50;;;;;;;3.20;1.00;;;;;;;1.60;79.59;100608.63;7391677;19;20015;-58
2024/01/16 03:56:21;;;;;;;3.67;0.93;;;;;;;1.58;79.64;100610.44;7389139;19;20022;-58
2024/01/16 03:58:52;;;;;;;3.83;1.00;;;;;;;1.68;79.18;100608.34;7389714;19;20035;-60
2024/01/16 04:01:33;;;;;;;5.13;0.90;;;;;;;1.63;79.07;100605.88;7391517;19;20376;-59
2024/01/16 04:04:06;;;;;;;6.72;1.10;;;;;;;1.54;79.18;100610.63;7390489;19;20412;-58
2024/01/16 04:06:37;;;;;;;2.25;0.70;;;;;;;1.51;79.19;100615.94;7390045;19;20026;-61
2024/01/16 04:09:09;;;;;;;6.03;1.15;;;;;;;1.55;79.05;100615.78;7390249;19;20026;-58
2024/01/16 04:11:39;;;;;;;3.55;0.98;;;;;;;1.35;79.32;100615.69;7388038;19;20043;-58
2024/01/16 04:14:10;;;;;;;5.90;1.73;;;;;;;1.39;79.26;100612.06;7387667;19;20022;-58
2024/01/16 04:16:40;;;;;;;7.10;1.20;;;;;;;1.38;79.44;100624.25;7388610;19;20014;-58
2024/01/16 04:19:10;;;;;;;4.68;0.95;;;;;;;1.46;79.36;100622.19;7392282;19;20090;-58
2024/01/16 04:21:41;;;;;;;4.05;1.00;;;;;;;1.42;79.02;100612.78;7390701;19;20350;-57
2024/01/16 04:24:11;;;;;;;4.10;1.10;;;;;;;1.63;78.56;100620.69;7391642;19;20537;-56
2024/01/16 04:26:41;;;;;;;6.47;1.20;;;;;;;1.65;78.00;100613.66;7388341;19;20022;-57
2024/01/16 04:29:14;;;;;;;6.88;1.30;;;;;;;1.53;77.91;100601.94;7391526;19;20022;-56
2024/01/16 04:31:44;;;;;;;4.13;0.80;;;;;;;1.46;78.53;100603.09;7389799;19;20029;-59
2024/01/16 04:34:14;;;;;;;5.03;0.77;;;;;;;1.38;78.88;100602.53;7388441;19;20534;-59
2024/01/16 04:36:45;;;;;;;8.95;1.08;;;;;;;1.47;78.69;100599.56;7387527;19;20086;-58
2024/01/16 04:39:15;;;;;;;3.60;0.95;;;;;;;1.49;78.53;100608.19;7391608;19;20010;-58
2024/01/16 04:41:45;;;;;;;6.63;1.20;;;;;;;1.46;78.28;100609.16;7390935;19;20407;-58
2024/01/16 04:44:15;;;;;;;4.03;0.90;;;;;;;1.38;78.45;100598.16;7390955;19;20082;-59
2024/01/16 04:46:46;;;;;;;6.53;1.20;;;;;;;1.36;78.62;100614.78;7386946;19;20074;-58
2024/01/16 04:49:16;;;;;;;4.93;1.13;;;;;;;1.31;78.33;100617.56;7391309;19;20112;-57
2024/01/16 04:51:47;;;;;;;4.13;1.00;;;;;;;1.29;78.33;100613.31;7390804;19;20029;-59
2024/01/16 04:54:17;;;;;;;4.13;1.00;;;;;;;1.31;78.87;100608.91;7390027;19;20363;-58
2024/01/16 04:56:47;;;;;;;5.47;0.98;;;;;;;1.28;78.36;100612.47;7388443;19;20387;-59
2024/01/16 04:59:16;;;;;;;6.53;1.20;;;;;;;1.24;78.89;100615.25;7390751;19;20018;-59
2024/01/16 05:01:46;;;;;;;6.38;1.00;;;;;;;1.25;78.79;100619.53;7388891;19;20015;-56
2024/01/16 05:04:14;;;;;;;7.57;1.10;;;;;;;1.26;78.84;100616.91;7390370;19;20018;-59
2024/01/16 05:06:44;;;;;;;4.50;1.05;;;;;;;1.23;78.83;100609.19;7388112;19;20021;-61
2024/01/16 05:09:12;;;;;;;4.78;1.10;;;;;;;1.44;78.33;100604.88;7390448;19;20352;-61
2024/01/16 05:11:42;;;;;;;7.32;1.10;;;;;;;1.44;78.31;100613.56;7397246;19;20380;-60
2024/01/16 05:14:10;;;;;;;5.88;1.08;;;;;;;1.65;77.99;100617.13;7395269;19;20347;-61
2024/01/16 05:16:40;;;;;;;6.63;1.15;;;;;;;1.55;78.07;100620.97;7396398;19;20014;-54
2024/01/16 05:19:09;;;;;;;6.53;1.00;;;;;;;1.64;78.19;100627.59;7399944;19;20082;-57
2024/01/16 05:21:41;;;;;;;7.90;1.20;;;;;;;1.66;77.65;100637.09;7399859;19;20639;-57
2024/01/16 05:24:10;;;;;;;7.53;1.15;;;;;;;1.71;78.10;100640.34;7399179;19;20016;-57
2024/01/16 05:26:39;;;;;;;5.55;1.10;;;;;;;1.81;77.81;100643.47;7395985;19;20081;-57
2024/01/16 05:29:09;;;;;;;3.70;1.00;;;;;;;1.67;77.78;100632.72;7397116;19;20018;-57
2024/01/16 05:31:42;;;;;;;7.00;1.15;;;;;;;1.58;78.19;100627.84;7398873;19;20019;-60
2024/01/16 05:34:12;;;;;;;9.05;1.45;;;;;;;1.50;78.33;100622.94;7396271;19;20036;-60
2024/01/16 05:36:43;;;;;;;7.20;1.17;;;;;;;1.36;78.49;100622.59;7394827;19;20477;-62
2024/01/16 05:40:38;;;;;;;6.88;1.27;;;;;;;1.33;78.58;100615.72;7425504;19;20305;-61
2024/01/16 05:43:08;;;;;;;6.70;1.30;;;;;;;1.44;78.18;100615.31;7428141;19;20022;-59
2024/01/16 05:45:39;;;;;;;5.78;0.93;;;;;;;1.39;78.24;100619.88;7425667;19;20022;-60
2024/01/16 05:48:09;;;;;;;7.70;1.10;;;;;;;1.49;78.21;100623.84;7428313;19;20031;-58
2024/01/16 05:50:39;;;;;;;8.10;1.10;;;;;;;1.61;77.73;100623.38;7425856;19;20026;-58
2024/01/16 05:53:09;;;;;;;5.75;0.98;;;;;;;1.65;77.74;100634.53;7427647;19;20038;-60
2024/01/16 05:55:40;;;;;;;7.25;1.10;;;;;;;1.62;77.46;100637.25;7424835;19;20014;-58
2024/01/16 05:58:10;;;;;;;8.70;1.42;;;;;;;1.69;77.77;100629.13;7427149;19;20046;-60
2024/01/16 06:00:44;;;;;;;5.85;1.08;;;;;;;1.75;77.58;100633.25;7426032;19;20017;-61
2024/01/16 06:03:14;;;;;;;5.68;1.40;;;;;;;1.63;77.84;100634.59;7426008;19;20534;-60
2024/01/16 06:05:45;;;;;;;5.65;1.08;;;;;;;1.71;78.06;100623.84;7425874;19;20028;-63
2024/01/16 06:08:15;;;;;;;6.47;1.20;;;;;;;1.69;77.87;100623.91;7427755;19;20019;-60
2024/01/16 06:10:46;;;;;;;6.80;1.02;;;;;;;1.76;78.14;100615.88;7426831;19;20101;-59
2024/01/16 06:13:18;;;;;;;6.20;1.17;;;;;;;1.83;77.96;100627.72;7427256;19;20023;-58
2024/01/16 06:15:49;;;;;;;4.70;1.10;;;;;;;1.81;78.36;100621.75;7425617;19;20022;-59
2024/01/16 06:18:19;;;;;;;5.78;1.55;;;;;;;1.77;78.59;100626.22;7425669;19;20022;-59
2024/01/16 06:20:50;;;;;;;6.32;1.23;;;;;;;1.68;78.70;100627.44;7426383;19;20025;-60
2024/01/16 06:23:20;;;;;;;6.22;1.40;;;;;;;1.80;78.63;100630.50;7425621;19;20022;-58
2024/01/16 06:25:50;;;;;;;4.70;1.17;;;;;;;1.78;78.34;100621.84;7425277;19;20014;-60
2024/01/16 06:28:21;;;;;;;5.55;1.42;;;;;;;1.85;78.44;100632.00;7425829;19;20019;-59
2024/01/16 06:30:51;;;;;;;3.40;1.10;;;;;;;1.92;78.36;100630.84;7426489;19;20024;-58
2024/01/16 06:33:21;;;;;;;7.85;1.20;;;;;;;1.96;78.41;100618.50;7424937;19;20094;-58
2024/01/16 06:35:54;;;;;;;6.07;1.10;;;;;;;1.93;78.66;100603.81;7423460;19;20026;-59
2024/01/16 06:38:25;;;;;;;5.03;1.30;;;;;;;1.82;79.44;100608.63;7426352;19;20494;-58
2024/01/16 06:40:56;;;;;;;5.68;1.13;;;;;;;1.76;79.96;100590.59;7426425;19;20018;-59
2024/01/16 06:43:26;;;;;;;4.68;0.90;;;;;;;1.79;79.81;100598.28;7426146;19;20029;-60
2024/01/16 06:45:56;;;;;;;5.32;1.20;;;;;;;1.66;80.22;100592.72;7424439;19;20021;-60
2024/01/16 06:48:26;;;;;;;4.70;1.25;;;;;;;1.60;80.56;100598.19;7424973;19;20022;-59
2024/01/16 06:50:57;;;;;;;6.97;1.13;;;;;;;1.56;80.67;100590.53;7409154;19;20390;-59
2024/01/16 06:53:30;;;;;;;6.05;1.30;;;;;;;1.62;80.25;100598.13;7397147;19;20465;-62
2024/01/16 06:56:00;;;;;;;7.03;1.55;;;;;;;1.65;80.04;100600.63;7395038;19;20053;-61
2024/01/16 06:58:35;;;;;;;7.03;1.60;;;;;;;1.65;79.60;100603.22;7395211;19;20486;-59
2024/01/16 07:01:08;;;;;;;9.10;1.52;;;;;;;1.56;79.85;100598.34;7397687;19;20042;-59
2024/01/16 07:03:39;;;;;;;9.38;1.42;;;;;;;1.62;79.49;100606.78;7397497;19;20039;-60
2024/01/16 07:06:09;;;;;;;9.18;1.30;;;;;;;1.73;79.23;100610.75;7395512;19;20019;-59
2024/01/16 07:08:40;;;;;;;8.38;1.58;;;;;;;1.70;78.79;100606.50;7396658;19;20011;-60
2024/01/16 07:11:13;;;;;;;8.00;1.58;;;;;;;1.60;78.73;100610.38;7396271;19;20023;-61
2024/01/16 07:13:43;;;;;;;9.65;1.80;;;;;;;1.61;78.83;100609.47;7396926;19;20033;-62
2024/01/16 07:16:14;;;;;;;12.32;1.60;;;;;;;1.68;78.72;100629.22;7394484;19;20485;-60
2024/01/16 07:18:44;;;;;;;5.10;1.17;;;;;;;1.60;78.43;100626.03;7396469;19;20036;-61
2024/01/16 07:21:18;;;;;;;7.50;1.30;;;;;;;1.57;78.79;100620.94;7396364;19;20042;-61
2024/01/16 07:23:48;;;;;;;7.22;1.35;;;;;;;1.59;78.67;100627.78;7396190;19;20521;-60
2024/01/16 07:26:19;;;;;;;11.52;1.60;;;;;;;1.68;78.31;100637.88;7392650;19;20014;-60
2024/01/16 07:28:49;;;;;;;7.05;1.38;;;;;;;1.64;78.36;100641.53;7396474;19;20515;-61
2024/01/16 07:31:20;;;;;;;6.25;1.25;;;;;;;1.72;77.89;100641.22;7394563;19;20023;-61
2024/01/16 07:33:50;;;;;;;4.53;1.30;;;;;;;1.69;78.20;100639.56;7396020;19;20028;-61
2024/01/16 07:36:21;;;;;;;5.05;1.20;;;;;;;1.73;77.85;100635.09;7394230;19;20425;-60
2024/01/16 07:38:51;;;;;;;7.00;1.25;;;;;;;1.80;77.88;100635.72;7395285;19;20367;-62
2024/01/16 07:41:22;;;;;;;8.75;1.40;;;;;;;1.72;77.60;100636.00;7395809;19;20015;-61
2024/01/16 07:43:52;;;;;;;7.80;1.50;;;;;;;1.77;77.77;100628.00;7394588;19;20026;-65
2024/01/16 07:46:22;;;;;;;7.68;1.50;;;;;;;1.82;78.00;100639.09;7393194;19;20022;-59
2024/01/16 07:48:52;;;;;;;8.30;1.33;;;;;;;1.78;77.71;100627.06;7395078;19;20022;-60
2024/01/16 07:51:23;;;;;;;3.90;1.17;;;;;;;1.82;77.64;100633.88;7395012;19;20022;-58
2024/01/16 07:54:05;;;;;;;10.02;1.20;;;;;;;1.90;77.58;100637.88;7395096;19;20025;-59
2024/01/16 07:56:37;;;;;;;6.75;1.40;;;;;;;1.92;77.63;100643.06;7393269;19;20017;-58
2024/01/16 07:59:08;;;;;;;5.20;1.48;;;;;;;1.97;77.65;100640.25;7394640;19;20216;-61
2024/01/16 08:01:38;;;;;;;10.57;1.40;;;;;;;1.88;77.40;100641.47;7393566;19;20420;-58
2024/01/16 08:04:08;;;;;;;9.02;1.52;;;;;;;1.82;77.77;100644.31;7393768;19;20515;-58
2024/01/16 08:06:38;;;;;;;7.47;1.17;;;;;;;1.86;77.92;100643.28;7393371;19;20018;-58
2024/01/16 08:09:12;;;;;;;8.82;1.20;;;;;;;1.99;77.41;100651.50;7393299;19;20025;-56
2024/01/16 08:11:42;;;;;;;7.97;1.33;;;;;;;1.99;77.44;100654.97;7394781;19;20401;-62
2024/01/16 08:14:13;;;;;;;7.70;1.15;;;;;;;1.94;77.14;100659.50;7394951;19;20056;-61
2024/01/16 08:16:43;;;;;;;6.63;1.05;;;;;;;1.93;77.59;100652.56;7392745;19;20018;-60
2024/01/16 08:19:14;;;;;;;7.53;1.45;;;;;;;1.89;77.62;100662.28;7393184;19;20026;-63
2024/01/16 08:21:45;;;;;;;7.47;1.50;;;;;;;2.02;77.54;100662.63;7393794;19;20498;-59
2024/01/16 08:24:15;;;;;;;10.10;1.52;;;;;;;2.06;77.59;100664.25;7390029;19;20018;-57
2024/01/16 08:26:46;;;;;;;8.07;1.40;;;;;;;2.00;77.75;100659.25;7390726;19;20022;-59
2024/01/16 08:29:17;;;;;;;8.35;1.60;;;;;;;2.05;77.70;100662.53;7393959;19;20486;-60
2024/01/16 08:31:47;;;;;;;8.85;1.65;;;;;;;2.25;77.28;100666.09;7393915;19;20018;-59
2024/01/16 08:34:18;;;;;;;8.05;1.38;;;;;;;2.31;76.47;100677.16;7392268;19;20607;-59
2024/01/16 08:36:49;;;;;;;6.45;1.60;;;;;;;2.28;76.53;100658.97;7392583;19;20482;-59
2024/01/16 08:39:20;;;;;;;9.30;1.60;;;;;;;2.36;76.42;100677.81;7393045;19;20007;-58
2024/01/16 08:41:51;;;;;;;7.32;1.40;;;;;;;2.33;76.54;100675.34;7391974;19;20033;-60
2024/01/16 08:44:21;;;;;;;7.03;1.92;;;;;;;2.32;77.03;100680.59;7393333;19;20018;-59
2024/01/16 08:46:52;;;;;;;9.18;1.80;;;;;;;2.32;77.28;100680.59;7391423;19;20371;-57
2024/01/16 08:49:23;;;;;;;6.63;1.40;;;;;;;2.29;77.22;100670.28;7393520;19;20054;-59
2024/01/16 08:51:53;;;;;;;8.30;1.88;;;;;;;2.34;77.07;100673.56;7391420;19;20062;-58
2024/01/16 08:54:25;;;;;;;4.70;1.40;;;;;;;2.41;76.87;100669.81;7396981;19;20027;-59
2024/01/16 08:56:56;;;;;;;7.40;1.60;;;;;;;2.48;77.00;100668.63;7391517;19;20023;-59
2024/01/16 08:59:43;;;;;;;9.45;1.65;;;;;;;2.34;76.94;100677.03;7391207;19;20484;-59
2024/01/16 09:02:30;;;;;;;7.43;1.75;;;;;;;2.23;77.51;100674.00;7387576;19;20018;-54
2024/01/16 09:05:18;;;;;;;8.43;1.60;;;;;;;2.30;77.13;100683.28;7387812;19;20066;-55
2024/01/16 09:08:05;;;;;;;6.82;1.50;;;;;;;2.53;76.62;100682.34;7388144;19;20019;-56
2024/01/16 09:10:56;;;;;;;10.48;2.03;;;;;;;2.37;76.98;100684.75;7387689;19;20019;-55
2024/01/16 09:13:43;;;;;;;7.85;1.80;;;;;;;2.33;77.06;100687.56;7385711;19;20694;-55
2024/01/16 09:16:30;;;;;;;6.85;1.60;;;;;;;2.38;77.42;100682.97;7386345;19;20466;-54
2024/01/16 09:19:17;;;;;;;10.45;2.25;;;;;;;2.51;76.76;100685.94;7387708;19;20014;-55
2024/01/16 09:22:05;;;;;;;6.10;1.80;;;;;;;2.53;76.62;100686.72;7385772;19;20096;-59
2024/01/16 09:24:52;;;;;;;7.90;1.73;;;;;;;2.57;76.58;100681.31;7387014;19;20145;-59
2024/01/16 09:27:39;;;;;;;6.65;1.67;;;;;;;2.60;76.29;100690.78;7387207;19;20018;-59
2024/01/16 09:30:26;;;;;;;8.60;2.25;;;;;;;2.62;76.10;100684.56;7388292;19;20048;-60
2024/01/16 09:33:15;;;;;;;10.20;2.33;;;;;;;2.69;76.24;100680.78;7389232;19;20015;-59
2024/01/16 09:36:03;;;;;;;5.75;1.67;;;;;;;2.65;76.09;100681.84;7388425;19;20018;-59
2024/01/16 09:38:52;;;;;;;6.55;1.60;;;;;;;2.51;76.21;100676.31;7389919;19;20014;-59
2024/01/16 09:41:41;;;;;;;4.15;1.63;;;;;;;2.63;76.41;100677.56;7388362;19;20615;-60
2024/01/16 09:44:29;;;;;;;9.95;1.92;;;;;;;2.61;76.07;100685.50;7389642;19;20544;-59
2024/01/16 09:47:17;;;;;;;4.93;1.70;;;;;;;2.67;76.14;100686.97;7385549;19;20034;-58
2024/01/16 09:50:05;;;;;;;8.95;2.20;;;;;;;2.61;76.07;100684.66;7387439;19;20018;-58
2024/01/16 09:52:53;;;;;;;6.00;1.90;;;;;;;2.66;76.16;100687.91;7388635;19;20044;-59
2024/01/16 09:55:42;;;;;;;8.13;1.80;;;;;;;2.67;75.86;100684.38;7386065;19;20496;-59
2024/01/16 09:58:36;;;;;;;6.55;1.92;;;;;;;2.76;75.37;100689.22;7385918;19;20018;-58
2024/01/16 10:01:27;;;;;;;6.88;1.83;;;;;;;2.69;76.08;100691.25;7384967;19;20018;-59
2024/01/16 10:04:15;;;;;;;10.15;2.00;;;;;;;2.76;75.82;100693.59;7387019;19;20053;-57
2024/01/16 10:07:04;;;;;;;6.88;2.05;;;;;;;2.96;75.15;100682.28;7382008;19;20022;-58
2024/01/16 10:09:51;;;;;;;10.55;1.73;;;;;;;3.02;74.98;100698.56;7387122;19;20018;-59
2024/01/16 10:12:41;;;;;;;6.18;2.10;;;;;;;3.05;75.35;100697.56;7386752;19;20022;-59
2024/01/16 10:15:31;;;;;;;5.43;2.17;;;;;;;3.03;75.19;100689.81;7385624;19;20495;-58
2024/01/16 10:18:25;;;;;;;6.80;2.10;;;;;;;3.14;74.92;100690.19;7386183;19;20022;-59
2024/01/16 10:21:22;;;;;;;8.52;2.08;;;;;;;3.28;74.38;100700.06;7383730;19;20015;-59
2024/01/16 10:23:53;;;;;;;6.15;1.92;;;;;;;3.33;74.71;100694.59;7393029;19;20026;-57
2024/01/16 10:26:21;;;;;;;6.68;2.08;;;;;;;3.20;74.74;100696.06;7395447;19;20019;-58
2024/01/16 10:29:09;;;;;;;10.40;2.90;;;;;;;3.39;74.80;100692.53;7394555;19;20037;-58
2024/01/16 10:31:56;;;;;;;10.65;3.13;;;;;;;3.29;74.61;100685.19;7393214;19;20028;-58
2024/01/16 10:34:43;;;;;;;10.02;2.70;;;;;;;3.26;74.98;100701.03;7393234;19;20014;-55
2024/01/16 10:37:41;;;;;;;13.73;2.17;;;;;;;3.59;73.87;100689.03;7392842;19;20123;-59
2024/01/16 10:40:29;;;;;;;9.05;2.25;;;;;;;3.60;73.56;100690.72;7391990;19;20018;-57
2024/01/16 10:43:18;;;;;;;7.32;1.98;;;;;;;3.52;73.89;100687.63;7392662;19;20015;-56
2024/01/16 10:46:08;;;;;;;8.50;2.17;;;;;;;3.71;73.62;100692.88;7391476;19;20018;-60
2024/01/16 10:49:00;;;;;;;5.97;1.83;;;;;;;3.56;74.03;100693.56;7393426;19;20021;-57
2024/01/16 10:51:51;;;;;;;8.15;2.17;;;;;;;3.51;73.86;100699.03;7393920;19;20085;-57
2024/01/16 10:54:41;;;;;;;8.43;2.47;;;;;;;3.42;74.83;100691.56;7397617;19;20363;-58
2024/01/16 10:57:33;;;;;;;10.80;2.50;;;;;;;3.50;74.90;100691.22;7393721;19;20015;-59
2024/01/16 11:00:22;;;;;;;7.35;2.55;;;;;;;3.62;74.14;100688.03;7394852;19;20023;-58
2024/01/16 11:03:15;;;;;;;7.45;2.35;;;;;;;3.65;73.75;100695.75;7395186;19;20015;-60
2024/01/16 11:05:47;;;;;;;7.28;2.40;;;;;;;3.57;74.01;100690.88;7395084;19;20022;-59
2024/01/16 11:08:18;;;;;;;10.48;2.80;;;;;;;3.71;74.07;100705.13;7396509;19;20036;-58
2024/01/16 11:10:50;;;;;;;6.35;2.38;;;;;;;3.63;74.17;100710.69;7396325;19;20014;-53
2024/01/16 11:13:22;;;;;;;7.18;2.13;;;;;;;3.60;74.42;100709.06;7394988;19;20024;-57
2024/01/16 11:15:53;;;;;;;7.93;2.67;;;;;;;3.57;74.41;100705.72;7394719;19;20029;-60
2024/01/16 11:18:27;;;;;;;5.78;1.85;;;;;;;3.60;74.16;100702.97;7396204;19;20023;-59
2024/01/16 11:20:59;;;;;;;10.48;2.70;;;;;;;3.53;74.64;100706.78;7395384;19;20413;-59
2024/01/16 11:23:40;;;;;;;6.80;2.10;;;;;;;3.55;74.63;100710.19;7399741;19;20756;-60
2024/01/16 11:26:33;;;;;;;6.93;2.30;;;;;;;3.55;74.47;100703.19;7394287;19;20043;-59
2024/01/16 11:29:26;;;;;;;8.82;2.10;;;;;;;3.50;74.72;100714.78;7396507;19;20011;-59
2024/01/16 11:31:58;;;;;;;7.57;2.15;;;;;;;3.25;75.44;100702.81;7396184;19;20023;-58
2024/01/16 11:34:41;;;;;;;8.98;2.42;;;;;;;3.30;75.74;100721.75;7394768;19;20078;-59
2024/01/16 11:37:24;;;;;;;11.27;2.47;;;;;;;3.24;75.68;100711.53;7392659;19;20380;-60
2024/01/16 11:40:17;;;;;;;9.52;2.50;;;;;;;3.28;75.57;100717.50;7395353;19;20014;-60
2024/01/16 11:42:52;;;;;;;7.47;2.45;;;;;;;3.26;75.67;100708.88;7392360;19;20039;-60
2024/01/16 11:45:27;;;;;;;8.93;2.42;;;;;;;3.25;75.46;100707.19;7394733;19;20022;-61
2024/01/16 11:48:10;;;;;;;11.70;2.60;;;;;;;3.42;75.16;100709.88;7396368;19;20018;-61
2024/01/16 11:50:43;;;;;;;5.57;2.17;;;;;;;3.51;74.75;100704.25;7395421;19;20022;-60
2024/01/16 11:53:38;;;;;;;6.28;2.10;;;;;;;3.42;74.69;100699.41;7395869;19;20014;-60
2024/01/16 11:56:34;;;;;;;5.03;2.15;;;;;;;3.50;74.84;100702.53;7393865;19;20366;-60
2024/01/16 11:59:13;;;;;;;;;;;;;;;3.22;74.85;100723.00;7394066;19;20018;-59
2024/01/16 12:01:45;;;;;;;5.00;2.10;;;;;;;3.25;75.46;100718.50;7393747;19;19910;-60
2024/01/16 12:04:18;;;;;;;7.03;2.28;;;;;;;3.33;75.19;100720.78;7395281;19;20035;-59
2024/01/16 12:06:58;;;;;;;8.30;2.55;;;;;;;3.32;75.23;100717.31;7392158;19;20086;-59
2024/01/16 12:09:37;;;;;;;7.93;2.47;;;;;;;3.26;75.25;100698.41;7394935;19;20022;-60